^^
Station Historical Data
Daily Summary for July 1, 2017 Units:  Both    English   Metric
« Previous Day
Next Day »
Daily Weekly Monthly Yearly Custom
  High: Low: Average:
Temperature: TemperatureF °F /  -17.8 °C 46.2 °F /  7.9 °C 58 °F /  14.4 °C
Dew Point: DewpointF °F /  -17.8 °C 28.9 °F /  -1.7 °C 32.4 °F /  0.2 °C
Humidity: Humidity% 21% 40%
Wind Speed: WindSpeedMPHmph /  0km/h - 0.8mph /  1.3km/h
Wind Gust: WindSpeedGustMPHmph /  0km/h - -
Wind- - SW
Pressure: PressureIn in /  0 hPa 30.28 in /  1025.3 hPa -
Precipitation: 0.00 in /  0 mm    
Historical Graphs
 
 
Tabular Data for July 1, 2017
Time Temperature Dew Point Pressure Wind Wind Speed Wind Gust Humidity Rainfall Rate (Hourly) solar Conditions
TemperatureF °F /  -17.8 °C DewpointF °F /  -17.8 °C PressureInin /  0hPa Calm     Humidity% HourlyPrecipInin /  0mm SolarRadiationWatts/m^2 W/m2 Conditions
00:03 48.9 °F /  9.4 °C 32.5 °F /  0.3 °C 30.35in /  1027.7hPa Calm     53% 0.00in /  0mm 0.0 W/m2
00:10 48.7 °F /  9.3 °C 32.9 °F /  0.5 °C 30.35in /  1027.7hPa Calm   3.0mph /  4.8km/h 54% 0.00in /  0mm 0.0 W/m2
00:16 48.7 °F /  9.3 °C 32.9 °F /  0.5 °C 30.35in /  1027.7hPa Calm   1.0mph /  1.6km/h 54% 0.00in /  0mm 0.0 W/m2
00:22 48.6 °F /  9.2 °C 32.7 °F /  0.4 °C 30.35in /  1027.7hPa Calm   2.0mph /  3.2km/h 54% 0.00in /  0mm 0.0 W/m2
00:28 48.6 °F /  9.2 °C 33.1 °F /  0.6 °C 30.35in /  1027.7hPa Calm   1.0mph /  1.6km/h 55% 0.00in /  0mm 0.0 W/m2
00:34 48.6 °F /  9.2 °C 33.1 °F /  0.6 °C 30.36in /  1028hPa Calm     55% 0.00in /  0mm 0.0 W/m2
00:40 48.6 °F /  9.2 °C 33.1 °F /  0.6 °C 30.36in /  1028hPa Calm   2.0mph /  3.2km/h 55% 0.00in /  0mm 0.0 W/m2
00:46 48.4 °F /  9.1 °C 32.9 °F /  0.5 °C 30.35in /  1027.7hPa Calm   3.0mph /  4.8km/h 55% 0.00in /  0mm 0.0 W/m2
00:52 48.4 °F /  9.1 °C 32.9 °F /  0.5 °C 30.36in /  1028hPa SSE 2.0mph /  3.2km/h 2.0mph /  3.2km/h 55% 0.00in /  0mm 0.0 W/m2
00:59 48.4 °F /  9.1 °C 32.9 °F /  0.5 °C 30.36in /  1028hPa Calm   1.0mph /  1.6km/h 55% 0.00in /  0mm 0.0 W/m2
01:05 48.4 °F /  9.1 °C 32.9 °F /  0.5 °C 30.36in /  1028hPa Calm   1.0mph /  1.6km/h 55% 0.00in /  0mm 0.0 W/m2
01:11 48.2 °F /  9 °C 32.7 °F /  0.4 °C 30.36in /  1028hPa Calm   3.0mph /  4.8km/h 55% 0.00in /  0mm 0.0 W/m2
01:17 48.2 °F /  9 °C 33.3 °F /  0.7 °C 30.36in /  1028hPa Calm     56% 0.00in /  0mm 0.0 W/m2
01:23 48.2 °F /  9 °C 33.3 °F /  0.7 °C 30.36in /  1028hPa Calm   2.0mph /  3.2km/h 56% 0.00in /  0mm 0.0 W/m2
01:29 48.0 °F /  8.9 °C 33.1 °F /  0.6 °C 30.36in /  1028hPa Calm   2.0mph /  3.2km/h 56% 0.00in /  0mm 0.0 W/m2
01:36 48.0 °F /  8.9 °C 33.1 °F /  0.6 °C 30.36in /  1028hPa East 2.0mph /  3.2km/h 3.0mph /  4.8km/h 56% 0.00in /  0mm 0.0 W/m2
01:42 48.0 °F /  8.9 °C 33.1 °F /  0.6 °C 30.36in /  1028hPa Calm   2.0mph /  3.2km/h 56% 0.00in /  0mm 0.0 W/m2
01:48 48.0 °F /  8.9 °C 32.5 °F /  0.3 °C 30.36in /  1028hPa Calm   3.0mph /  4.8km/h 55% 0.00in /  0mm 0.0 W/m2
01:54 48.0 °F /  8.9 °C 33.1 °F /  0.6 °C 30.35in /  1027.7hPa Calm   3.0mph /  4.8km/h 56% 0.00in /  0mm 0.0 W/m2
02:00 47.8 °F /  8.8 °C 32.9 °F /  0.5 °C 30.36in /  1028hPa Calm     56% 0.00in /  0mm 0.0 W/m2
02:06 47.8 °F /  8.8 °C 32.9 °F /  0.5 °C 30.35in /  1027.7hPa Calm   2.0mph /  3.2km/h 56% 0.00in /  0mm 0.0 W/m2
02:12 47.8 °F /  8.8 °C 32.9 °F /  0.5 °C 30.35in /  1027.7hPa Calm   1.0mph /  1.6km/h 56% 0.00in /  0mm 0.0 W/m2
02:18 47.7 °F /  8.7 °C 32.7 °F /  0.4 °C 30.35in /  1027.7hPa Calm   3.0mph /  4.8km/h 56% 0.00in /  0mm 0.0 W/m2
02:25 47.8 °F /  8.8 °C 32.9 °F /  0.5 °C 30.35in /  1027.7hPa Calm   2.0mph /  3.2km/h 56% 0.00in /  0mm 0.0 W/m2
02:31 47.8 °F /  8.8 °C 32.9 °F /  0.5 °C 30.35in /  1027.7hPa SE 0.9mph /  1.4km/h 2.0mph /  3.2km/h 56% 0.00in /  0mm 0.0 W/m2
02:37 47.7 °F /  8.7 °C 32.7 °F /  0.4 °C 30.35in /  1027.7hPa SE 0.9mph /  1.4km/h 2.0mph /  3.2km/h 56% 0.00in /  0mm 0.0 W/m2
02:43 47.7 °F /  8.7 °C 32.7 °F /  0.4 °C 30.35in /  1027.7hPa Calm   1.0mph /  1.6km/h 56% 0.00in /  0mm 0.0 W/m2
02:49 47.5 °F /  8.6 °C 33.1 °F /  0.6 °C 30.35in /  1027.7hPa Calm     57% 0.00in /  0mm 0.0 W/m2
02:55 47.1 °F /  8.4 °C 32.7 °F /  0.4 °C 30.35in /  1027.7hPa Calm   2.0mph /  3.2km/h 57% 0.00in /  0mm 0.0 W/m2
03:01 46.9 °F /  8.3 °C 32.9 °F /  0.5 °C 30.35in /  1027.7hPa ESE 2.0mph /  3.2km/h 2.0mph /  3.2km/h 58% 0.00in /  0mm 0.0 W/m2
03:07 46.9 °F /  8.3 °C 32.9 °F /  0.5 °C 30.35in /  1027.7hPa Calm     58% 0.00in /  0mm 0.0 W/m2
03:14 46.9 °F /  8.3 °C 32.9 °F /  0.5 °C 30.35in /  1027.7hPa Calm     58% 0.00in /  0mm 0.0 W/m2
03:20 46.8 °F /  8.2 °C 32.7 °F /  0.4 °C 30.35in /  1027.7hPa Calm     58% 0.00in /  0mm 0.0 W/m2
03:26 46.8 °F /  8.2 °C 32.7 °F /  0.4 °C 30.35in /  1027.7hPa Calm     58% 0.00in /  0mm 0.0 W/m2
03:32 46.6 °F /  8.1 °C 32.5 °F /  0.3 °C 30.35in /  1027.7hPa Calm     58% 0.00in /  0mm 0.0 W/m2
03:38 46.4 °F /  8 °C 32.9 °F /  0.5 °C 30.35in /  1027.7hPa Calm     59% 0.00in /  0mm 0.0 W/m2
03:44 46.2 °F /  7.9 °C 32.7 °F /  0.4 °C 30.35in /  1027.7hPa Calm   2.0mph /  3.2km/h 59% 0.00in /  0mm 0.0 W/m2
03:50 46.2 °F /  7.9 °C 32.7 °F /  0.4 °C 30.34in /  1027.3hPa Calm   1.0mph /  1.6km/h 59% 0.00in /  0mm 0.0 W/m2
03:57 46.2 °F /  7.9 °C 32.7 °F /  0.4 °C 30.34in /  1027.3hPa Calm   2.0mph /  3.2km/h 59% 0.00in /  0mm 0.0 W/m2
04:03 46.4 °F /  8 °C 32.9 °F /  0.5 °C 30.34in /  1027.3hPa Calm   2.0mph /  3.2km/h 59% 0.00in /  0mm 0.0 W/m2
04:09 46.4 °F /  8 °C 32.9 °F /  0.5 °C 30.34in /  1027.3hPa Calm   2.0mph /  3.2km/h 59% 0.00in /  0mm 0.0 W/m2
04:15 46.4 °F /  8 °C 32.9 °F /  0.5 °C 30.34in /  1027.3hPa SSE 0.9mph /  1.4km/h 4.0mph /  6.4km/h 59% 0.00in /  0mm 0.0 W/m2
04:21 46.6 °F /  8.1 °C 33.1 °F /  0.6 °C 30.34in /  1027.3hPa Calm     59% 0.00in /  0mm 0.0 W/m2
04:27 46.8 °F /  8.2 °C 33.3 °F /  0.7 °C 30.34in /  1027.3hPa ESE 2.9mph /  4.7km/h 3.0mph /  4.8km/h 59% 0.00in /  0mm 0.0 W/m2
04:33 46.8 °F /  8.2 °C 32.7 °F /  0.4 °C 30.34in /  1027.3hPa East 0.9mph /  1.4km/h 3.0mph /  4.8km/h 58% 0.00in /  0mm 0.0 W/m2
04:40 46.8 °F /  8.2 °C 33.3 °F /  0.7 °C 30.34in /  1027.3hPa Calm   1.0mph /  1.6km/h 59% 0.00in /  0mm 0.0 W/m2
04:46 46.8 °F /  8.2 °C 32.7 °F /  0.4 °C 30.34in /  1027.3hPa Calm   1.0mph /  1.6km/h 58% 0.00in /  0mm 0.0 W/m2
04:52 46.8 °F /  8.2 °C 32.7 °F /  0.4 °C 30.34in /  1027.3hPa NE 0.9mph /  1.4km/h 3.0mph /  4.8km/h 58% 0.00in /  0mm 0.0 W/m2
04:58 46.9 °F /  8.3 °C 32.9 °F /  0.5 °C 30.34in /  1027.3hPa Calm     58% 0.00in /  0mm 0.0 W/m2
05:04 46.9 °F /  8.3 °C 32.9 °F /  0.5 °C 30.34in /  1027.3hPa East 0.9mph /  1.4km/h 2.0mph /  3.2km/h 58% 0.00in /  0mm 0.0 W/m2
05:10 46.9 °F /  8.3 °C 32.9 °F /  0.5 °C 30.34in /  1027.3hPa Calm   3.0mph /  4.8km/h 58% 0.00in /  0mm 0.0 W/m2
05:16 46.9 °F /  8.3 °C 32.9 °F /  0.5 °C 30.34in /  1027.3hPa East 0.9mph /  1.4km/h 4.0mph /  6.4km/h 58% 0.00in /  0mm 0.0 W/m2
05:22 46.9 °F /  8.3 °C 32.5 °F /  0.3 °C 30.34in /  1027.3hPa ESE 2.0mph /  3.2km/h 4.0mph /  6.4km/h 57% 0.00in /  0mm 0.0 W/m2
05:29 46.9 °F /  8.3 °C 32.9 °F /  0.5 °C 30.34in /  1027.3hPa Calm   2.0mph /  3.2km/h 58% 0.00in /  0mm 0.0 W/m2
05:35 46.8 °F /  8.2 °C 32.7 °F /  0.4 °C 30.35in /  1027.7hPa Calm   1.0mph /  1.6km/h 58% 0.00in /  0mm 0.0 W/m2
05:41 46.6 °F /  8.1 °C 32.5 °F /  0.3 °C 30.35in /  1027.7hPa Calm   1.0mph /  1.6km/h 58% 0.00in /  0mm 0.0 W/m2
05:47 46.2 °F /  7.9 °C 32.2 °F /  0.1 °C 30.34in /  1027.3hPa Calm   1.0mph /  1.6km/h 58% 0.00in /  0mm 0.0 W/m2
05:53 46.2 °F /  7.9 °C 32.2 °F /  0.1 °C 30.35in /  1027.7hPa ESE 0.9mph /  1.4km/h 2.0mph /  3.2km/h 58% 0.00in /  0mm 0.0 W/m2
06:00 46.6 °F /  8.1 °C 32.5 °F /  0.3 °C 30.35in /  1027.7hPa Calm   1.0mph /  1.6km/h 58% 0.00in /  0mm 0.0 W/m2
06:06 46.6 °F /  8.1 °C 32.2 °F /  0.1 °C 30.35in /  1027.7hPa Calm     57% 0.00in /  0mm 0.0 W/m2
06:12 46.2 °F /  7.9 °C 32.2 °F /  0.1 °C 30.35in /  1027.7hPa Calm   3.0mph /  4.8km/h 58% 0.00in /  0mm 0.0 W/m2
06:18 46.2 °F /  7.9 °C 32.2 °F /  0.1 °C 30.35in /  1027.7hPa ESE 2.0mph /  3.2km/h 3.0mph /  4.8km/h 58% 0.00in /  0mm 0.0 W/m2
06:24 46.6 °F /  8.1 °C 32.2 °F /  0.1 °C 30.35in /  1027.7hPa Calm   1.0mph /  1.6km/h 57% 0.00in /  0mm 0.0 W/m2
06:30 46.6 °F /  8.1 °C 32.2 °F /  0.1 °C 30.35in /  1027.7hPa Calm   1.0mph /  1.6km/h 57% 0.00in /  0mm 0.0 W/m2
06:36 46.6 °F /  8.1 °C 32.2 °F /  0.1 °C 30.36in /  1028hPa Calm   4.0mph /  6.4km/h 57% 0.00in /  0mm 5.0 W/m2
06:42 46.6 °F /  8.1 °C 32.2 °F /  0.1 °C 30.36in /  1028hPa Calm   1.0mph /  1.6km/h 57% 0.00in /  0mm 7.0 W/m2
06:49 46.4 °F /  8 °C 32.0 °F /  0 °C 30.36in /  1028hPa Calm     57% 0.00in /  0mm 11.0 W/m2
06:55 46.4 °F /  8 °C 32.0 °F /  0 °C 30.36in /  1028hPa ENE 0.9mph /  1.4km/h 3.0mph /  4.8km/h 57% 0.00in /  0mm 12.0 W/m2
07:01 46.4 °F /  8 °C 32.0 °F /  0 °C 30.37in /  1028.3hPa Calm   2.0mph /  3.2km/h 57% 0.00in /  0mm 16.0 W/m2
07:07 46.6 °F /  8.1 °C 32.2 °F /  0.1 °C 30.37in /  1028.3hPa Calm   1.0mph /  1.6km/h 57% 0.00in /  0mm 18.0 W/m2
07:13 46.6 °F /  8.1 °C 32.5 °F /  0.3 °C 30.37in /  1028.3hPa SE 2.0mph /  3.2km/h 2.0mph /  3.2km/h 58% 0.00in /  0mm 19.0 W/m2
07:19 46.8 °F /  8.2 °C 32.7 °F /  0.4 °C 30.37in /  1028.3hPa Calm   1.0mph /  1.6km/h 58% 0.00in /  0mm 23.0 W/m2
07:26 46.8 °F /  8.2 °C 32.7 °F /  0.4 °C 30.37in /  1028.3hPa Calm   1.0mph /  1.6km/h 58% 0.00in /  0mm 25.0 W/m2
07:32 46.9 °F /  8.3 °C 32.9 °F /  0.5 °C 30.37in /  1028.3hPa Calm   1.0mph /  1.6km/h 58% 0.00in /  0mm 26.0 W/m2
07:38 47.1 °F /  8.4 °C 33.1 °F /  0.6 °C 30.37in /  1028.3hPa ENE 0.9mph /  1.4km/h 2.0mph /  3.2km/h 58% 0.00in /  0mm 28.0 W/m2
07:44 47.5 °F /  8.6 °C 33.4 °F /  0.8 °C 30.37in /  1028.3hPa East 0.9mph /  1.4km/h 3.0mph /  4.8km/h 58% 0.00in /  0mm 30.0 W/m2
07:50 48.4 °F /  9.1 °C 33.4 °F /  0.8 °C 30.37in /  1028.3hPa ENE 2.9mph /  4.7km/h 4.0mph /  6.4km/h 56% 0.00in /  0mm 32.0 W/m2
07:56 50.2 °F /  10.1 °C 34.7 °F /  1.5 °C 30.38in /  1028.7hPa ENE 0.9mph /  1.4km/h 3.0mph /  4.8km/h 55% 0.00in /  0mm 67.0 W/m2
08:02 52.2 °F /  11.2 °C 35.1 °F /  1.7 °C 30.37in /  1028.3hPa NE 2.0mph /  3.2km/h 2.0mph /  3.2km/h 52% 0.00in /  0mm 246.0 W/m2
08:09 54.1 °F /  12.3 °C 36.0 °F /  2.2 °C 30.38in /  1028.7hPa Calm     50% 0.00in /  0mm 274.0 W/m2
08:14 55.2 °F /  12.9 °C 36.0 °F /  2.2 °C 30.38in /  1028.7hPa Calm     48% 0.00in /  0mm 283.0 W/m2
08:21 57.6 °F /  14.2 °C 36.9 °F /  2.7 °C 30.38in /  1028.7hPa Calm   2.0mph /  3.2km/h 46% 0.00in /  0mm 309.0 W/m2
08:27 59.0 °F /  15 °C 36.5 °F /  2.5 °C 30.39in /  1029hPa Calm   1.0mph /  1.6km/h 43% 0.00in /  0mm 329.0 W/m2
08:33 60.6 °F /  15.9 °C 36.9 °F /  2.7 °C 30.39in /  1029hPa NE 2.0mph /  3.2km/h 4.0mph /  6.4km/h 41% 0.00in /  0mm 348.0 W/m2
08:39 62.2 °F /  16.8 °C 37.6 °F /  3.1 °C 30.39in /  1029hPa Calm   1.0mph /  1.6km/h 40% 0.00in /  0mm 369.0 W/m2
08:45 63.7 °F /  17.6 °C 36.9 °F /  2.7 °C 30.39in /  1029hPa Calm     37% 0.00in /  0mm 388.0 W/m2
08:52 64.6 °F /  18.1 °C 37.8 °F /  3.2 °C 30.38in /  1028.7hPa Calm   2.0mph /  3.2km/h 37% 0.00in /  0mm 406.0 W/m2
08:58 65.5 °F /  18.6 °C 38.5 °F /  3.6 °C 30.38in /  1028.7hPa Calm   1.0mph /  1.6km/h 37% 0.00in /  0mm 424.0 W/m2
09:04 65.8 °F /  18.8 °C 37.4 °F /  3 °C 30.39in /  1029hPa Calm   2.0mph /  3.2km/h 35% 0.00in /  0mm 441.0 W/m2
09:10 66.6 °F /  19.2 °C 37.4 °F /  3 °C 30.38in /  1028.7hPa Calm     34% 0.00in /  0mm 457.0 W/m2
09:16 67.1 °F /  19.5 °C 37.0 °F /  2.8 °C 30.38in /  1028.7hPa Calm   2.0mph /  3.2km/h 33% 0.00in /  0mm 471.0 W/m2
09:22 67.5 °F /  19.7 °C 38.1 °F /  3.4 °C 30.38in /  1028.7hPa Calm   1.0mph /  1.6km/h 34% 0.00in /  0mm 489.0 W/m2
09:28 67.8 °F /  19.9 °C 37.6 °F /  3.1 °C 30.38in /  1028.7hPa NNW 2.0mph /  3.2km/h 2.0mph /  3.2km/h 33% 0.00in /  0mm 503.0 W/m2
09:34 68.4 °F /  20.2 °C 37.4 °F /  3 °C 30.38in /  1028.7hPa NW 0.9mph /  1.4km/h 1.0mph /  1.6km/h 32% 0.00in /  0mm 515.0 W/m2
09:41 68.4 °F /  20.2 °C 38.1 °F /  3.4 °C 30.38in /  1028.7hPa NNW 2.9mph /  4.7km/h 4.0mph /  6.4km/h 33% 0.00in /  0mm 531.0 W/m2
09:47 68.7 °F /  20.4 °C 38.5 °F /  3.6 °C 30.38in /  1028.7hPa Calm   2.0mph /  3.2km/h 33% 0.00in /  0mm 541.0 W/m2
09:53 69.1 °F /  20.6 °C 37.9 °F /  3.3 °C 30.38in /  1028.7hPa North 0.9mph /  1.4km/h 3.0mph /  4.8km/h 32% 0.00in /  0mm 555.0 W/m2
09:59 69.1 °F /  20.6 °C 37.9 °F /  3.3 °C 30.37in /  1028.3hPa Calm   2.0mph /  3.2km/h 32% 0.00in /  0mm 568.0 W/m2
10:05 69.3 °F /  20.7 °C 38.1 °F /  3.4 °C 30.38in /  1028.7hPa Calm   5.0mph /  8km/h 32% 0.00in /  0mm 578.0 W/m2
10:11 69.4 °F /  20.8 °C 38.3 °F /  3.5 °C 30.37in /  1028.3hPa NW 2.0mph /  3.2km/h 5.0mph /  8km/h 32% 0.00in /  0mm 587.0 W/m2
10:17 69.6 °F /  20.9 °C 37.6 °F /  3.1 °C 30.38in /  1028.7hPa Calm   6.0mph /  9.7km/h 31% 0.00in /  0mm 599.0 W/m2
10:24 70.0 °F /  21.1 °C 37.9 °F /  3.3 °C 30.38in /  1028.7hPa Calm   3.0mph /  4.8km/h 31% 0.00in /  0mm 608.0 W/m2
10:29 70.2 °F /  21.2 °C 37.2 °F /  2.9 °C 30.37in /  1028.3hPa Calm   7.0mph /  11.3km/h 30% 0.00in /  0mm 622.0 W/m2
10:36 70.7 °F /  21.5 °C 37.8 °F /  3.2 °C 30.37in /  1028.3hPa Calm   3.0mph /  4.8km/h 30% 0.00in /  0mm 628.0 W/m2
10:42 71.1 °F /  21.7 °C 38.1 °F /  3.4 °C 30.37in /  1028.3hPa NNW 4.0mph /  6.4km/h 4.0mph /  6.4km/h 30% 0.00in /  0mm 631.0 W/m2
10:48 71.4 °F /  21.9 °C 37.6 °F /  3.1 °C 30.37in /  1028.3hPa North 2.9mph /  4.7km/h 6.0mph /  9.7km/h 29% 0.00in /  0mm 640.0 W/m2
10:50 71.4 °F /  21.9 °C 36.7 °F /  2.6 °C 30.37in /  1028.3hPa NW 4.0mph /  6.4km/h 5.0mph /  8km/h 28% 0.00in /  0mm 640.0 W/m2
10:56 71.8 °F /  22.1 °C 37.8 °F /  3.2 °C 30.37in /  1028.3hPa NE 2.9mph /  4.7km/h 6.0mph /  9.7km/h 29% 0.00in /  0mm 645.0 W/m2
11:02 72.0 °F /  22.2 °C 37.0 °F /  2.8 °C 30.36in /  1028hPa North 6.9mph /  11.1km/h 7.0mph /  11.3km/h 28% 0.00in /  0mm 652.0 W/m2
11:08 72.1 °F /  22.3 °C 37.2 °F /  2.9 °C 30.36in /  1028hPa Calm   3.0mph /  4.8km/h 28% 0.00in /  0mm 661.0 W/m2
11:14 72.3 °F /  22.4 °C 36.5 °F /  2.5 °C 30.36in /  1028hPa NNW 4.0mph /  6.4km/h 8.0mph /  12.9km/h 27% 0.00in /  0mm 657.0 W/m2
11:20 72.3 °F /  22.4 °C 36.5 °F /  2.5 °C 30.35in /  1027.7hPa North 2.0mph /  3.2km/h 6.0mph /  9.7km/h 27% 0.00in /  0mm 661.0 W/m2
11:27 72.7 °F /  22.6 °C 36.9 °F /  2.7 °C 30.35in /  1027.7hPa NNW 2.9mph /  4.7km/h 5.0mph /  8km/h 27% 0.00in /  0mm 661.0 W/m2
11:35 72.9 °F /  22.7 °C 36.9 °F /  2.7 °C 30.34in /  1027.3hPa North 0.9mph /  1.4km/h 4.0mph /  6.4km/h 27% 0.00in /  0mm 671.0 W/m2
11:41 72.9 °F /  22.7 °C 36.0 °F /  2.2 °C 30.34in /  1027.3hPa NNW 6.0mph /  9.7km/h 9.0mph /  14.5km/h 26% 0.00in /  0mm 670.0 W/m2
11:47 72.9 °F /  22.7 °C 36.0 °F /  2.2 °C 30.34in /  1027.3hPa SW 0.9mph /  1.4km/h 8.0mph /  12.9km/h 26% 0.00in /  0mm 668.0 W/m2
11:53 73.0 °F /  22.8 °C 37.0 °F /  2.8 °C 30.34in /  1027.3hPa NNW 2.9mph /  4.7km/h 5.0mph /  8km/h 27% 0.00in /  0mm 666.0 W/m2
11:59 73.0 °F /  22.8 °C 35.1 °F /  1.7 °C 30.33in /  1027hPa West 6.0mph /  9.7km/h 8.0mph /  12.9km/h 25% 0.00in /  0mm 668.0 W/m2
12:05 72.9 °F /  22.7 °C 36.0 °F /  2.2 °C 30.33in /  1027hPa NW 0.9mph /  1.4km/h 8.0mph /  12.9km/h 26% 0.00in /  0mm 666.0 W/m2
12:12 72.9 °F /  22.7 °C 36.0 °F /  2.2 °C 30.33in /  1027hPa Calm   6.0mph /  9.7km/h 26% 0.00in /  0mm 657.0 W/m2
12:18 72.7 °F /  22.6 °C 35.8 °F /  2.1 °C 30.33in /  1027hPa Calm   6.0mph /  9.7km/h 26% 0.00in /  0mm 657.0 W/m2
12:24 73.0 °F /  22.8 °C 35.1 °F /  1.7 °C 30.32in /  1026.6hPa South 2.0mph /  3.2km/h 8.0mph /  12.9km/h 25% 0.00in /  0mm 656.0 W/m2
12:30 73.2 °F /  22.9 °C 35.2 °F /  1.8 °C 30.32in /  1026.6hPa North 2.0mph /  3.2km/h 7.0mph /  11.3km/h 25% 0.00in /  0mm 650.0 W/m2
12:36 73.6 °F /  23.1 °C 34.5 °F /  1.4 °C 30.32in /  1026.6hPa WNW 0.9mph /  1.4km/h 7.0mph /  11.3km/h 24% 0.00in /  0mm 647.0 W/m2
12:42 73.6 °F /  23.1 °C 34.5 °F /  1.4 °C 30.31in /  1026.3hPa North 4.9mph /  7.9km/h 13.0mph /  20.9km/h 24% 0.00in /  0mm 633.0 W/m2
12:48 73.4 °F /  23 °C 35.4 °F /  1.9 °C 30.31in /  1026.3hPa Calm   6.0mph /  9.7km/h 25% 0.00in /  0mm 624.0 W/m2
12:54 73.4 °F /  23 °C 35.4 °F /  1.9 °C 30.31in /  1026.3hPa NNW 2.9mph /  4.7km/h 6.0mph /  9.7km/h 25% 0.00in /  0mm 631.0 W/m2
13:00 73.4 °F /  23 °C 32.2 °F /  0.1 °C 30.30in /  1026hPa NNW 6.0mph /  9.7km/h 9.0mph /  14.5km/h 22% 0.00in /  0mm 629.0 W/m2
13:07 73.6 °F /  23.1 °C 31.3 °F /  -0.4 °C 30.30in /  1026hPa NNW 8.1mph /  13km/h 9.0mph /  14.5km/h 21% 0.00in /  0mm 624.0 W/m2
13:13 73.8 °F /  23.2 °C 32.5 °F /  0.3 °C 30.30in /  1026hPa NNW 0.9mph /  1.4km/h 4.0mph /  6.4km/h 22% 0.00in /  0mm 610.0 W/m2
13:19 73.9 °F /  23.3 °C 31.5 °F /  -0.3 °C 30.30in /  1026hPa NW 6.9mph /  11.1km/h 10.0mph /  16.1km/h 21% 0.00in /  0mm 606.0 W/m2
13:25 73.9 °F /  23.3 °C 31.5 °F /  -0.3 °C 30.30in /  1026hPa West 4.9mph /  7.9km/h 7.0mph /  11.3km/h 21% 0.00in /  0mm 599.0 W/m2
13:31 73.8 °F /  23.2 °C 31.5 °F /  -0.3 °C 30.29in /  1025.6hPa WNW 0.9mph /  1.4km/h 7.0mph /  11.3km/h 21% 0.00in /  0mm 584.0 W/m2
13:37 73.8 °F /  23.2 °C 31.5 °F /  -0.3 °C 30.29in /  1025.6hPa Calm   1.0mph /  1.6km/h 21% 0.00in /  0mm 571.0 W/m2
13:42 73.8 °F /  23.2 °C 31.5 °F /  -0.3 °C 30.29in /  1025.6hPa North 2.9mph /  4.7km/h 9.0mph /  14.5km/h 21% 0.00in /  0mm 563.0 W/m2
13:49 73.8 °F /  23.2 °C 31.5 °F /  -0.3 °C 30.29in /  1025.6hPa West 4.9mph /  7.9km/h 7.0mph /  11.3km/h 21% 0.00in /  0mm 554.0 W/m2
13:55 73.9 °F /  23.3 °C 31.5 °F /  -0.3 °C 30.29in /  1025.6hPa NNW 2.0mph /  3.2km/h 7.0mph /  11.3km/h 21% 0.00in /  0mm 538.0 W/m2
14:01 73.9 °F /  23.3 °C 31.5 °F /  -0.3 °C 30.29in /  1025.6hPa North 4.9mph /  7.9km/h 9.0mph /  14.5km/h 21% 0.00in /  0mm 526.0 W/m2
14:07 73.8 °F /  23.2 °C 31.5 °F /  -0.3 °C 30.29in /  1025.6hPa West 2.0mph /  3.2km/h 7.0mph /  11.3km/h 21% 0.00in /  0mm 510.0 W/m2
14:13 73.6 °F /  23.1 °C 31.3 °F /  -0.4 °C 30.29in /  1025.6hPa West 2.9mph /  4.7km/h 7.0mph /  11.3km/h 21% 0.00in /  0mm 497.0 W/m2
14:19 73.6 °F /  23.1 °C 31.3 °F /  -0.4 °C 30.28in /  1025.3hPa Calm   1.0mph /  1.6km/h 21% 0.00in /  0mm 485.0 W/m2
14:25 73.6 °F /  23.1 °C 31.3 °F /  -0.4 °C 30.28in /  1025.3hPa Calm   9.0mph /  14.5km/h 21% 0.00in /  0mm 469.0 W/m2
14:31 73.8 °F /  23.2 °C 32.5 °F /  0.3 °C 30.28in /  1025.3hPa NNW 8.1mph /  13km/h 13.0mph /  20.9km/h 22% 0.00in /  0mm 454.0 W/m2
14:37 73.4 °F /  23 °C 32.2 °F /  0.1 °C 30.28in /  1025.3hPa WNW 0.9mph /  1.4km/h 15.0mph /  24.1km/h 22% 0.00in /  0mm 436.0 W/m2
14:43 73.6 °F /  23.1 °C 31.3 °F /  -0.4 °C 30.28in /  1025.3hPa NNW 2.9mph /  4.7km/h 6.0mph /  9.7km/h 21% 0.00in /  0mm 425.0 W/m2
14:49 73.6 °F /  23.1 °C 32.4 °F /  0.2 °C 30.28in /  1025.3hPa Calm   4.0mph /  6.4km/h 22% 0.00in /  0mm 411.0 W/m2
14:55 73.6 °F /  23.1 °C 32.4 °F /  0.2 °C 30.28in /  1025.3hPa NW 0.9mph /  1.4km/h 3.0mph /  4.8km/h 22% 0.00in /  0mm 392.0 W/m2
15:07 73.2 °F /  22.9 °C 32.2 °F /  0.1 °C 30.28in /  1025.3hPa NW 2.0mph /  3.2km/h 8.0mph /  12.9km/h 22% 0.00in /  0mm 359.0 W/m2
15:13 73.0 °F /  22.8 °C 32.0 °F /  0 °C 30.28in /  1025.3hPa West 0.9mph /  1.4km/h 4.0mph /  6.4km/h 22% 0.00in /  0mm 341.0 W/m2
15:19 72.9 °F /  22.7 °C 31.8 °F /  -0.1 °C 30.28in /  1025.3hPa Calm   1.0mph /  1.6km/h 22% 0.00in /  0mm 322.0 W/m2
15:25 72.7 °F /  22.6 °C 31.6 °F /  -0.2 °C 30.28in /  1025.3hPa NW 2.9mph /  4.7km/h 7.0mph /  11.3km/h 22% 0.00in /  0mm 53.0 W/m2
15:31 72.1 °F /  22.3 °C 31.1 °F /  -0.5 °C 30.28in /  1025.3hPa NW 0.9mph /  1.4km/h 1.0mph /  1.6km/h 22% 0.00in /  0mm 47.0 W/m2
15:37 71.8 °F /  22.1 °C 32.0 °F /  0 °C 30.28in /  1025.3hPa NNW 2.9mph /  4.7km/h 3.0mph /  4.8km/h 23% 0.00in /  0mm 46.0 W/m2
15:43 71.4 °F /  21.9 °C 31.6 °F /  -0.2 °C 30.28in /  1025.3hPa Calm   2.0mph /  3.2km/h 23% 0.00in /  0mm 44.0 W/m2
15:49 71.2 °F /  21.8 °C 31.5 °F /  -0.3 °C 30.28in /  1025.3hPa NNW 2.0mph /  3.2km/h 6.0mph /  9.7km/h 23% 0.00in /  0mm 42.0 W/m2
15:55 71.1 °F /  21.7 °C 31.5 °F /  -0.3 °C 30.28in /  1025.3hPa NNW 0.9mph /  1.4km/h 5.0mph /  8km/h 23% 0.00in /  0mm 40.0 W/m2
16:01 70.7 °F /  21.5 °C 31.1 °F /  -0.5 °C 30.28in /  1025.3hPa WNW 4.0mph /  6.4km/h 6.0mph /  9.7km/h 23% 0.00in /  0mm 37.0 W/m2
16:07 70.5 °F /  21.4 °C 30.9 °F /  -0.6 °C 30.29in /  1025.6hPa NNW 4.9mph /  7.9km/h 8.0mph /  12.9km/h 23% 0.00in /  0mm 33.0 W/m2
16:14 70.2 °F /  21.2 °C 30.6 °F /  -0.8 °C 30.28in /  1025.3hPa NW 4.9mph /  7.9km/h 7.0mph /  11.3km/h 23% 0.00in /  0mm 28.0 W/m2
16:20 70.0 °F /  21.1 °C 30.6 °F /  -0.8 °C 30.29in /  1025.6hPa NNW 0.9mph /  1.4km/h 5.0mph /  8km/h 23% 0.00in /  0mm 26.0 W/m2
16:26 69.6 °F /  20.9 °C 31.3 °F /  -0.4 °C 30.29in /  1025.6hPa Calm   1.0mph /  1.6km/h 24% 0.00in /  0mm 23.0 W/m2
16:34 69.4 °F /  20.8 °C 31.1 °F /  -0.5 °C 30.29in /  1025.6hPa Calm   2.0mph /  3.2km/h 24% 0.00in /  0mm 23.0 W/m2
16:40 69.1 °F /  20.6 °C 31.8 °F /  -0.1 °C 30.29in /  1025.6hPa Calm   2.0mph /  3.2km/h 25% 0.00in /  0mm 19.0 W/m2
16:48 68.5 °F /  20.3 °C 31.3 °F /  -0.4 °C 30.29in /  1025.6hPa Calm   1.0mph /  1.6km/h 25% 0.00in /  0mm 18.0 W/m2
16:54 68.2 °F /  20.1 °C 31.1 °F /  -0.5 °C 30.29in /  1025.6hPa Calm   2.0mph /  3.2km/h 25% 0.00in /  0mm 14.0 W/m2
17:00 67.8 °F /  19.9 °C 30.7 °F /  -0.7 °C 30.29in /  1025.6hPa Calm   1.0mph /  1.6km/h 25% 0.00in /  0mm 12.0 W/m2
17:06 67.5 °F /  19.7 °C 31.5 °F /  -0.3 °C 30.29in /  1025.6hPa Calm   2.0mph /  3.2km/h 26% 0.00in /  0mm 9.0 W/m2
17:12 67.1 °F /  19.5 °C 32.0 °F /  0 °C 30.30in /  1026hPa Calm     27% 0.00in /  0mm 7.0 W/m2
17:18 66.6 °F /  19.2 °C 31.5 °F /  -0.3 °C 30.30in /  1026hPa Calm     27% 0.00in /  0mm 0.0 W/m2
17:20 66.6 °F /  19.2 °C 32.4 °F /  0.2 °C 30.30in /  1026hPa Calm     28% 0.00in /  0mm 0.0 W/m2
17:26 65.8 °F /  18.8 °C 31.8 °F /  -0.1 °C 30.30in /  1026hPa Calm     28% 0.00in /  0mm 0.0 W/m2
17:32 65.1 °F /  18.4 °C 31.3 °F /  -0.4 °C 30.30in /  1026hPa Calm     28% 0.00in /  0mm 0.0 W/m2
17:38 64.4 °F /  18 °C 31.5 °F /  -0.3 °C 30.30in /  1026hPa Calm     29% 0.00in /  0mm 0.0 W/m2
17:44 63.7 °F /  17.6 °C 31.6 °F /  -0.2 °C 30.30in /  1026hPa Calm     30% 0.00in /  0mm 0.0 W/m2
17:50 63.0 °F /  17.2 °C 31.1 °F /  -0.5 °C 30.30in /  1026hPa Calm     30% 0.00in /  0mm 0.0 W/m2
17:56 62.1 °F /  16.7 °C 31.1 °F /  -0.5 °C 30.31in /  1026.3hPa Calm     31% 0.00in /  0mm 0.0 W/m2
18:02 61.3 °F /  16.3 °C 30.4 °F /  -0.9 °C 30.31in /  1026.3hPa Calm   2.0mph /  3.2km/h 31% 0.00in /  0mm 0.0 W/m2
18:08 60.8 °F /  16 °C 30.7 °F /  -0.7 °C 30.31in /  1026.3hPa Calm     32% 0.00in /  0mm 0.0 W/m2
18:14 60.3 °F /  15.7 °C 31.1 °F /  -0.5 °C 30.31in /  1026.3hPa Calm     33% 0.00in /  0mm 0.0 W/m2
18:20 59.7 °F /  15.4 °C 30.6 °F /  -0.8 °C 30.32in /  1026.6hPa Calm     33% 0.00in /  0mm 0.0 W/m2
18:26 59.2 °F /  15.1 °C 30.7 °F /  -0.7 °C 30.32in /  1026.6hPa Calm     34% 0.00in /  0mm 0.0 W/m2
18:32 58.6 °F /  14.8 °C 30.4 °F /  -0.9 °C 30.32in /  1026.6hPa Calm     34% 0.00in /  0mm 0.0 W/m2
18:38 58.1 °F /  14.5 °C 30.6 °F /  -0.8 °C 30.32in /  1026.6hPa Calm     35% 0.00in /  0mm 0.0 W/m2
18:44 57.6 °F /  14.2 °C 30.0 °F /  -1.1 °C 30.32in /  1026.6hPa Calm     35% 0.00in /  0mm 0.0 W/m2
18:50 57.0 °F /  13.9 °C 30.4 °F /  -0.9 °C 30.32in /  1026.6hPa Calm     36% 0.00in /  0mm 0.0 W/m2
18:56 56.8 °F /  13.8 °C 30.2 °F /  -1 °C 30.33in /  1027hPa Calm     36% 0.00in /  0mm 0.0 W/m2
19:02 56.5 °F /  13.6 °C 30.6 °F /  -0.8 °C 30.33in /  1027hPa Calm     37% 0.00in /  0mm 0.0 W/m2
19:08 55.9 °F /  13.3 °C 30.0 °F /  -1.1 °C 30.33in /  1027hPa Calm     37% 0.00in /  0mm 0.0 W/m2
19:14 55.6 °F /  13.1 °C 30.4 °F /  -0.9 °C 30.33in /  1027hPa Calm     38% 0.00in /  0mm 0.0 W/m2
19:20 55.0 °F /  12.8 °C 29.8 °F /  -1.2 °C 30.33in /  1027hPa Calm   1.0mph /  1.6km/h 38% 0.00in /  0mm 0.0 W/m2
19:26 54.9 °F /  12.7 °C 29.7 °F /  -1.3 °C 30.33in /  1027hPa Calm   2.0mph /  3.2km/h 38% 0.00in /  0mm 0.0 W/m2
19:32 54.9 °F /  12.7 °C 29.7 °F /  -1.3 °C 30.33in /  1027hPa Calm   1.0mph /  1.6km/h 38% 0.00in /  0mm 0.0 W/m2
19:38 54.9 °F /  12.7 °C 29.7 °F /  -1.3 °C 30.33in /  1027hPa Calm     38% 0.00in /  0mm 0.0 W/m2
19:44 54.5 °F /  12.5 °C 30.0 °F /  -1.1 °C 30.33in /  1027hPa Calm   1.0mph /  1.6km/h 39% 0.00in /  0mm 0.0 W/m2
19:50 54.1 °F /  12.3 °C 29.7 °F /  -1.3 °C 30.33in /  1027hPa Calm     39% 0.00in /  0mm 0.0 W/m2
19:56 54.0 °F /  12.2 °C 30.2 °F /  -1 °C 30.33in /  1027hPa Calm     40% 0.00in /  0mm 0.0 W/m2
20:02 53.6 °F /  12 °C 29.8 °F /  -1.2 °C 30.33in /  1027hPa Calm     40% 0.00in /  0mm 0.0 W/m2
20:08 53.2 °F /  11.8 °C 29.5 °F /  -1.4 °C 30.34in /  1027.3hPa Calm     40% 0.00in /  0mm 0.0 W/m2
20:14 53.1 °F /  11.7 °C 29.3 °F /  -1.5 °C 30.33in /  1027hPa Calm     40% 0.00in /  0mm 0.0 W/m2
20:20 53.2 °F /  11.8 °C 29.5 °F /  -1.4 °C 30.34in /  1027.3hPa Calm   1.0mph /  1.6km/h 40% 0.00in /  0mm 0.0 W/m2
20:26 53.4 °F /  11.9 °C 29.7 °F /  -1.3 °C 30.34in /  1027.3hPa Calm   2.0mph /  3.2km/h 40% 0.00in /  0mm 0.0 W/m2
20:32 53.4 °F /  11.9 °C 29.7 °F /  -1.3 °C 30.34in /  1027.3hPa Calm     40% 0.00in /  0mm 0.0 W/m2
20:38 53.2 °F /  11.8 °C 29.5 °F /  -1.4 °C 30.33in /  1027hPa Calm   2.0mph /  3.2km/h 40% 0.00in /  0mm 0.0 W/m2
20:44 53.1 °F /  11.7 °C 29.3 °F /  -1.5 °C 30.33in /  1027hPa Calm   1.0mph /  1.6km/h 40% 0.00in /  0mm 0.0 W/m2
20:50 53.1 °F /  11.7 °C 29.3 °F /  -1.5 °C 30.33in /  1027hPa SE 0.9mph /  1.4km/h 1.0mph /  1.6km/h 40% 0.00in /  0mm 0.0 W/m2
20:56 53.4 °F /  11.9 °C 29.7 °F /  -1.3 °C 30.33in /  1027hPa Calm     40% 0.00in /  0mm 0.0 W/m2
21:02 53.1 °F /  11.7 °C 29.3 °F /  -1.5 °C 30.33in /  1027hPa East 0.9mph /  1.4km/h 2.0mph /  3.2km/h 40% 0.00in /  0mm 0.0 W/m2
21:09 52.9 °F /  11.6 °C 29.3 °F /  -1.5 °C 30.33in /  1027hPa Calm   1.0mph /  1.6km/h 40% 0.00in /  0mm 0.0 W/m2
21:14 52.7 °F /  11.5 °C 29.1 °F /  -1.6 °C 30.34in /  1027.3hPa Calm   2.0mph /  3.2km/h 40% 0.00in /  0mm 0.0 W/m2
21:21 52.5 °F /  11.4 °C 29.5 °F /  -1.4 °C 30.34in /  1027.3hPa Calm   1.0mph /  1.6km/h 41% 0.00in /  0mm 0.0 W/m2
21:27 52.3 °F /  11.3 °C 29.3 °F /  -1.5 °C 30.34in /  1027.3hPa Calm   3.0mph /  4.8km/h 41% 0.00in /  0mm 0.0 W/m2
21:33 52.2 °F /  11.2 °C 29.1 °F /  -1.6 °C 30.34in /  1027.3hPa Calm   1.0mph /  1.6km/h 41% 0.00in /  0mm 0.0 W/m2
21:39 52.2 °F /  11.2 °C 29.1 °F /  -1.6 °C 30.34in /  1027.3hPa East 2.9mph /  4.7km/h 3.0mph /  4.8km/h 41% 0.00in /  0mm 0.0 W/m2
21:45 52.2 °F /  11.2 °C 29.1 °F /  -1.6 °C 30.34in /  1027.3hPa Calm   1.0mph /  1.6km/h 41% 0.00in /  0mm 0.0 W/m2
21:51 52.0 °F /  11.1 °C 28.9 °F /  -1.7 °C 30.34in /  1027.3hPa Calm   2.0mph /  3.2km/h 41% 0.00in /  0mm 0.0 W/m2
21:57 51.6 °F /  10.9 °C 29.3 °F /  -1.5 °C 30.34in /  1027.3hPa Calm     42% 0.00in /  0mm 0.0 W/m2
22:03 51.6 °F /  10.9 °C 29.3 °F /  -1.5 °C 30.34in /  1027.3hPa Calm   3.0mph /  4.8km/h 42% 0.00in /  0mm 0.0 W/m2
22:09 51.4 °F /  10.8 °C 29.1 °F /  -1.6 °C 30.34in /  1027.3hPa East 2.0mph /  3.2km/h 2.0mph /  3.2km/h 42% 0.00in /  0mm 0.0 W/m2
22:15 51.4 °F /  10.8 °C 29.7 °F /  -1.3 °C 30.34in /  1027.3hPa Calm     43% 0.00in /  0mm 0.0 W/m2
22:17 51.4 °F /  10.8 °C 29.1 °F /  -1.6 °C 30.34in /  1027.3hPa Calm   1.0mph /  1.6km/h 42% 0.00in /  0mm 0.0 W/m2
22:23 51.4 °F /  10.8 °C 29.1 °F /  -1.6 °C 30.34in /  1027.3hPa ESE 0.9mph /  1.4km/h 4.0mph /  6.4km/h 42% 0.00in /  0mm 0.0 W/m2
22:29 51.4 °F /  10.8 °C 29.7 °F /  -1.3 °C 30.34in /  1027.3hPa Calm   3.0mph /  4.8km/h 43% 0.00in /  0mm 0.0 W/m2
22:35 51.4 °F /  10.8 °C 29.1 °F /  -1.6 °C 30.34in /  1027.3hPa Calm   4.0mph /  6.4km/h 42% 0.00in /  0mm 0.0 W/m2
22:41 51.4 °F /  10.8 °C 29.1 °F /  -1.6 °C 30.34in /  1027.3hPa Calm   4.0mph /  6.4km/h 42% 0.00in /  0mm 0.0 W/m2
22:47 51.4 °F /  10.8 °C 29.1 °F /  -1.6 °C 30.34in /  1027.3hPa Calm   1.0mph /  1.6km/h 42% 0.00in /  0mm 0.0 W/m2
22:53 51.4 °F /  10.8 °C 29.7 °F /  -1.3 °C 30.34in /  1027.3hPa Calm   1.0mph /  1.6km/h 43% 0.00in /  0mm 0.0 W/m2
22:59 51.4 °F /  10.8 °C 29.7 °F /  -1.3 °C 30.35in /  1027.7hPa Calm   1.0mph /  1.6km/h 43% 0.00in /  0mm 0.0 W/m2
23:05 51.3 °F /  10.7 °C 29.5 °F /  -1.4 °C 30.35in /  1027.7hPa ENE 0.9mph /  1.4km/h 1.0mph /  1.6km/h 43% 0.00in /  0mm 0.0 W/m2
23:12 51.1 °F /  10.6 °C 29.3 °F /  -1.5 °C 30.34in /  1027.3hPa Calm   1.0mph /  1.6km/h 43% 0.00in /  0mm 0.0 W/m2
23:18 51.1 °F /  10.6 °C 29.8 °F /  -1.2 °C 30.34in /  1027.3hPa Calm   1.0mph /  1.6km/h 44% 0.00in /  0mm 0.0 W/m2
23:24 50.7 °F /  10.4 °C 29.7 °F /  -1.3 °C 30.34in /  1027.3hPa Calm   1.0mph /  1.6km/h 44% 0.00in /  0mm 0.0 W/m2
23:30 50.7 °F /  10.4 °C 29.7 °F /  -1.3 °C 30.34in /  1027.3hPa Calm   2.0mph /  3.2km/h 44% 0.00in /  0mm 0.0 W/m2
23:36 50.7 °F /  10.4 °C 29.7 °F /  -1.3 °C 30.34in /  1027.3hPa Calm     44% 0.00in /  0mm 0.0 W/m2
23:42 50.5 °F /  10.3 °C 30.0 °F /  -1.1 °C 30.34in /  1027.3hPa Calm     45% 0.00in /  0mm 0.0 W/m2
23:48 50.4 °F /  10.2 °C 29.8 °F /  -1.2 °C 30.34in /  1027.3hPa Calm   1.0mph /  1.6km/h 45% 0.00in /  0mm 0.0 W/m2
23:54 50.2 °F /  10.1 °C 29.7 °F /  -1.3 °C 30.34in /  1027.3hPa Calm     45% 0.00in /  0mm 0.0 W/m2
Olympia, Windhoek, Namibia
Compliments of Weather Underground - 3 mb